sensor_id;sensor_type;location;lat;lon;timestamp;P1;durP1;ratioP1;P2;durP2;ratioP2
42668;SDS011;29384;42.028;21.388;2023-04-28T00:00:41;2.83;;;2.38;;
42668;SDS011;29384;42.028;21.388;2023-04-28T00:03:06;3.83;;;2.67;;
42668;SDS011;29384;42.028;21.388;2023-04-28T00:05:31;3.67;;;2.58;;
42668;SDS011;29384;42.028;21.388;2023-04-28T00:07:57;4.78;;;2.42;;
42668;SDS011;29384;42.028;21.388;2023-04-28T00:13:25;3.00;;;2.22;;
42668;SDS011;29384;42.028;21.388;2023-04-28T00:15:51;2.33;;;2.13;;
42668;SDS011;29384;42.028;21.388;2023-04-28T00:18:17;2.67;;;2.47;;
42668;SDS011;29384;42.028;21.388;2023-04-28T00:20:42;9.38;;;2.63;;
42668;SDS011;29384;42.028;21.388;2023-04-28T00:23:08;6.05;;;2.60;;
42668;SDS011;29384;42.028;21.388;2023-04-28T00:28:36;2.85;;;2.28;;
42668;SDS011;29384;42.028;21.388;2023-04-28T00:31:08;4.68;;;2.67;;
42668;SDS011;29384;42.028;21.388;2023-04-28T00:33:33;2.53;;;2.08;;
42668;SDS011;29384;42.028;21.388;2023-04-28T00:35:59;5.57;;;2.42;;
42668;SDS011;29384;42.028;21.388;2023-04-28T00:38:25;7.65;;;1.75;;
42668;SDS011;29384;42.028;21.388;2023-04-28T00:43:53;3.67;;;3.38;;
42668;SDS011;29384;42.028;21.388;2023-04-28T00:46:23;4.32;;;2.33;;
42668;SDS011;29384;42.028;21.388;2023-04-28T00:48:49;2.55;;;2.15;;
42668;SDS011;29384;42.028;21.388;2023-04-28T00:51:14;10.15;;;3.13;;
42668;SDS011;29384;42.028;21.388;2023-04-28T00:53:40;3.72;;;2.67;;
42668;SDS011;29384;42.028;21.388;2023-04-28T00:56:05;5.45;;;2.83;;
42668;SDS011;29384;42.028;21.388;2023-04-28T00:58:31;2.30;;;2.20;;
42668;SDS011;29384;42.028;21.388;2023-04-28T01:01:02;2.95;;;2.45;;
42668;SDS011;29384;42.028;21.388;2023-04-28T01:03:27;3.42;;;2.50;;
42668;SDS011;29384;42.028;21.388;2023-04-28T01:05:53;7.32;;;2.70;;
42668;SDS011;29384;42.028;21.388;2023-04-28T01:08:22;5.03;;;3.05;;
42668;SDS011;29384;42.028;21.388;2023-04-28T01:13:50;2.65;;;2.40;;
42668;SDS011;29384;42.028;21.388;2023-04-28T01:16:16;2.40;;;2.30;;
42668;SDS011;29384;42.028;21.388;2023-04-28T01:18:42;2.55;;;2.45;;
42668;SDS011;29384;42.028;21.388;2023-04-28T01:21:10;2.83;;;2.38;;
42668;SDS011;29384;42.028;21.388;2023-04-28T01:23:36;3.47;;;2.45;;
42668;SDS011;29384;42.028;21.388;2023-04-28T01:29:05;3.85;;;2.63;;
42668;SDS011;29384;42.028;21.388;2023-04-28T01:31:30;4.30;;;3.35;;
42668;SDS011;29384;42.028;21.388;2023-04-28T01:33:55;4.50;;;2.95;;
42668;SDS011;29384;42.028;21.388;2023-04-28T01:36:21;6.60;;;2.30;;
42668;SDS011;29384;42.028;21.388;2023-04-28T01:38:47;4.80;;;2.35;;
42668;SDS011;29384;42.028;21.388;2023-04-28T01:44:15;3.00;;;2.78;;
42668;SDS011;29384;42.028;21.388;2023-04-28T01:46:40;2.85;;;2.65;;
42668;SDS011;29384;42.028;21.388;2023-04-28T01:49:06;2.00;;;1.77;;
42668;SDS011;29384;42.028;21.388;2023-04-28T01:51:31;7.43;;;1.92;;
42668;SDS011;29384;42.028;21.388;2023-04-28T01:53:56;4.10;;;1.90;;
42668;SDS011;29384;42.028;21.388;2023-04-28T01:59:24;4.85;;;1.80;;
42668;SDS011;29384;42.028;21.388;2023-04-28T02:01:50;6.10;;;1.85;;
42668;SDS011;29384;42.028;21.388;2023-04-28T02:04:15;2.35;;;2.13;;
42668;SDS011;29384;42.028;21.388;2023-04-28T02:06:41;3.42;;;2.55;;
42668;SDS011;29384;42.028;21.388;2023-04-28T02:09:06;1.98;;;1.88;;
42668;SDS011;29384;42.028;21.388;2023-04-28T02:14:34;3.47;;;2.03;;
42668;SDS011;29384;42.028;21.388;2023-04-28T02:17:00;8.48;;;2.63;;
42668;SDS011;29384;42.028;21.388;2023-04-28T02:19:27;2.65;;;2.38;;
42668;SDS011;29384;42.028;21.388;2023-04-28T02:21:52;3.78;;;2.88;;
42668;SDS011;29384;42.028;21.388;2023-04-28T02:24:17;3.63;;;2.53;;
42668;SDS011;29384;42.028;21.388;2023-04-28T02:26:42;12.55;;;2.17;;
42668;SDS011;29384;42.028;21.388;2023-04-28T02:29:08;3.33;;;2.78;;
42668;SDS011;29384;42.028;21.388;2023-04-28T02:31:33;3.10;;;2.25;;
42668;SDS011;29384;42.028;21.388;2023-04-28T02:33:58;2.97;;;2.58;;
42668;SDS011;29384;42.028;21.388;2023-04-28T02:36:23;1.80;;;1.70;;
42668;SDS011;29384;42.028;21.388;2023-04-28T02:38:49;3.00;;;2.75;;
42668;SDS011;29384;42.028;21.388;2023-04-28T02:44:17;4.10;;;2.63;;
42668;SDS011;29384;42.028;21.388;2023-04-28T02:46:42;2.15;;;1.98;;
42668;SDS011;29384;42.028;21.388;2023-04-28T02:49:08;3.53;;;2.17;;
42668;SDS011;29384;42.028;21.388;2023-04-28T02:51:33;5.45;;;2.38;;
42668;SDS011;29384;42.028;21.388;2023-04-28T02:53:58;2.67;;;2.47;;
42668;SDS011;29384;42.028;21.388;2023-04-28T02:59:26;4.50;;;2.17;;
42668;SDS011;29384;42.028;21.388;2023-04-28T03:01:52;3.38;;;2.10;;
42668;SDS011;29384;42.028;21.388;2023-04-28T03:04:17;10.18;;;2.88;;
42668;SDS011;29384;42.028;21.388;2023-04-28T03:06:42;6.63;;;3.00;;
42668;SDS011;29384;42.028;21.388;2023-04-28T03:09:08;3.47;;;3.03;;
42668;SDS011;29384;42.028;21.388;2023-04-28T03:14:37;2.75;;;2.55;;
42668;SDS011;29384;42.028;21.388;2023-04-28T03:17:02;3.42;;;3.13;;
42668;SDS011;29384;42.028;21.388;2023-04-28T03:19:28;6.75;;;2.80;;
42668;SDS011;29384;42.028;21.388;2023-04-28T03:21:53;2.50;;;2.25;;
42668;SDS011;29384;42.028;21.388;2023-04-28T03:24:18;3.58;;;2.83;;
42668;SDS011;29384;42.028;21.388;2023-04-28T03:29:46;3.25;;;2.63;;
42668;SDS011;29384;42.028;21.388;2023-04-28T03:32:12;4.20;;;2.47;;
42668;SDS011;29384;42.028;21.388;2023-04-28T03:34:37;8.77;;;2.60;;
42668;SDS011;29384;42.028;21.388;2023-04-28T03:37:02;2.15;;;1.88;;
42668;SDS011;29384;42.028;21.388;2023-04-28T03:39:28;4.43;;;2.75;;
42668;SDS011;29384;42.028;21.388;2023-04-28T03:44:56;2.75;;;2.55;;
42668;SDS011;29384;42.028;21.388;2023-04-28T03:47:21;7.05;;;2.97;;
42668;SDS011;29384;42.028;21.388;2023-04-28T03:49:46;4.10;;;2.78;;
42668;SDS011;29384;42.028;21.388;2023-04-28T03:52:12;3.42;;;2.40;;
42668;SDS011;29384;42.028;21.388;2023-04-28T03:54:37;4.72;;;2.80;;
42668;SDS011;29384;42.028;21.388;2023-04-28T04:00:05;6.50;;;2.80;;
42668;SDS011;29384;42.028;21.388;2023-04-28T04:02:31;6.57;;;2.28;;
42668;SDS011;29384;42.028;21.388;2023-04-28T04:04:57;4.90;;;2.83;;
42668;SDS011;29384;42.028;21.388;2023-04-28T04:07:22;4.03;;;2.17;;
42668;SDS011;29384;42.028;21.388;2023-04-28T04:09:47;6.80;;;2.80;;
42668;SDS011;29384;42.028;21.388;2023-04-28T04:12:13;3.13;;;2.80;;
42668;SDS011;29384;42.028;21.388;2023-04-28T04:14:38;16.58;;;2.55;;
42668;SDS011;29384;42.028;21.388;2023-04-28T04:17:03;2.67;;;2.47;;
42668;SDS011;29384;42.028;21.388;2023-04-28T04:19:29;3.20;;;2.95;;
42668;SDS011;29384;42.028;21.388;2023-04-28T04:21:54;3.15;;;1.98;;
42668;SDS011;29384;42.028;21.388;2023-04-28T04:24:19;2.85;;;2.47;;
42668;SDS011;29384;42.028;21.388;2023-04-28T04:29:47;2.25;;;2.15;;
42668;SDS011;29384;42.028;21.388;2023-04-28T04:32:13;4.40;;;2.03;;
42668;SDS011;29384;42.028;21.388;2023-04-28T04:34:38;2.92;;;2.63;;
42668;SDS011;29384;42.028;21.388;2023-04-28T04:37:03;2.78;;;2.58;;
42668;SDS011;29384;42.028;21.388;2023-04-28T04:39:28;3.05;;;2.38;;
42668;SDS011;29384;42.028;21.388;2023-04-28T04:44:56;5.22;;;2.55;;
42668;SDS011;29384;42.028;21.388;2023-04-28T04:47:21;5.68;;;3.17;;
42668;SDS011;29384;42.028;21.388;2023-04-28T04:49:48;3.03;;;2.78;;
42668;SDS011;29384;42.028;21.388;2023-04-28T04:52:14;4.78;;;2.67;;
42668;SDS011;29384;42.028;21.388;2023-04-28T04:54:39;2.75;;;2.58;;
42668;SDS011;29384;42.028;21.388;2023-04-28T05:00:08;2.40;;;2.20;;
42668;SDS011;29384;42.028;21.388;2023-04-28T05:02:33;3.05;;;2.75;;
42668;SDS011;29384;42.028;21.388;2023-04-28T05:04:59;6.63;;;3.80;;
42668;SDS011;29384;42.028;21.388;2023-04-28T05:07:24;3.95;;;2.25;;
42668;SDS011;29384;42.028;21.388;2023-04-28T05:09:50;10.13;;;3.70;;
42668;SDS011;29384;42.028;21.388;2023-04-28T05:15:18;2.70;;;2.50;;
42668;SDS011;29384;42.028;21.388;2023-04-28T05:17:43;2.80;;;2.05;;
42668;SDS011;29384;42.028;21.388;2023-04-28T05:20:09;2.05;;;1.92;;
42668;SDS011;29384;42.028;21.388;2023-04-28T05:22:34;3.65;;;2.47;;
42668;SDS011;29384;42.028;21.388;2023-04-28T05:25:00;6.15;;;2.65;;
42668;SDS011;29384;42.028;21.388;2023-04-28T05:30:28;4.32;;;2.90;;
42668;SDS011;29384;42.028;21.388;2023-04-28T05:32:53;3.28;;;2.85;;
42668;SDS011;29384;42.028;21.388;2023-04-28T05:35:18;3.10;;;2.90;;
42668;SDS011;29384;42.028;21.388;2023-04-28T05:37:44;2.55;;;2.28;;
42668;SDS011;29384;42.028;21.388;2023-04-28T05:40:09;2.65;;;1.90;;
42668;SDS011;29384;42.028;21.388;2023-04-28T05:45:37;6.45;;;2.97;;
42668;SDS011;29384;42.028;21.388;2023-04-28T05:48:03;5.13;;;2.88;;
42668;SDS011;29384;42.028;21.388;2023-04-28T05:50:29;8.05;;;3.10;;
42668;SDS011;29384;42.028;21.388;2023-04-28T05:52:54;5.38;;;2.47;;
42668;SDS011;29384;42.028;21.388;2023-04-28T05:55:20;2.63;;;2.42;;
42668;SDS011;29384;42.028;21.388;2023-04-28T06:00:49;3.42;;;2.30;;
42668;SDS011;29384;42.028;21.388;2023-04-28T06:03:14;2.78;;;2.28;;
42668;SDS011;29384;42.028;21.388;2023-04-28T06:05:42;3.03;;;2.13;;
42668;SDS011;29384;42.028;21.388;2023-04-28T06:08:08;3.70;;;2.08;;
42668;SDS011;29384;42.028;21.388;2023-04-28T06:10:33;3.42;;;1.98;;
42668;SDS011;29384;42.028;21.388;2023-04-28T06:12:58;5.20;;;2.33;;
42668;SDS011;29384;42.028;21.388;2023-04-28T06:15:24;3.58;;;2.03;;
42668;SDS011;29384;42.028;21.388;2023-04-28T06:17:49;2.13;;;1.90;;
42668;SDS011;29384;42.028;21.388;2023-04-28T06:20:15;8.95;;;1.90;;
42668;SDS011;29384;42.028;21.388;2023-04-28T06:22:40;5.90;;;2.38;;
42668;SDS011;29384;42.028;21.388;2023-04-28T06:25:06;1.42;;;1.33;;
42668;SDS011;29384;42.028;21.388;2023-04-28T06:30:34;1.67;;;1.15;;
42668;SDS011;29384;42.028;21.388;2023-04-28T06:32:59;5.63;;;1.48;;
42668;SDS011;29384;42.028;21.388;2023-04-28T06:35:24;1.85;;;1.08;;
42668;SDS011;29384;42.028;21.388;2023-04-28T06:37:50;4.55;;;1.38;;
42668;SDS011;29384;42.028;21.388;2023-04-28T06:40:15;2.03;;;0.82;;
42668;SDS011;29384;42.028;21.388;2023-04-28T06:45:43;5.78;;;1.27;;
42668;SDS011;29384;42.028;21.388;2023-04-28T06:48:09;3.15;;;1.00;;
42668;SDS011;29384;42.028;21.388;2023-04-28T06:50:35;1.75;;;0.77;;
42668;SDS011;29384;42.028;21.388;2023-04-28T06:53:01;0.95;;;0.93;;
42668;SDS011;29384;42.028;21.388;2023-04-28T06:55:26;1.90;;;1.23;;
42668;SDS011;29384;42.028;21.388;2023-04-28T07:00:54;4.45;;;1.48;;
42668;SDS011;29384;42.028;21.388;2023-04-28T07:03:20;4.90;;;1.65;;
42668;SDS011;29384;42.028;21.388;2023-04-28T07:05:45;4.90;;;1.52;;
42668;SDS011;29384;42.028;21.388;2023-04-28T07:08:10;1.63;;;1.27;;
42668;SDS011;29384;42.028;21.388;2023-04-28T07:10:36;2.63;;;1.42;;
42668;SDS011;29384;42.028;21.388;2023-04-28T07:16:04;1.90;;;1.27;;
42668;SDS011;29384;42.028;21.388;2023-04-28T07:18:29;4.30;;;1.15;;
42668;SDS011;29384;42.028;21.388;2023-04-28T07:20:55;0.77;;;0.75;;
42668;SDS011;29384;42.028;21.388;2023-04-28T07:23:20;9.65;;;1.67;;
42668;SDS011;29384;42.028;21.388;2023-04-28T07:25:45;2.40;;;0.93;;
42668;SDS011;29384;42.028;21.388;2023-04-28T07:31:13;1.67;;;1.08;;
42668;SDS011;29384;42.028;21.388;2023-04-28T07:33:39;0.75;;;0.50;;
42668;SDS011;29384;42.028;21.388;2023-04-28T07:36:04;1.00;;;1.00;;
42668;SDS011;29384;42.028;21.388;2023-04-28T07:38:29;0.93;;;0.85;;
42668;SDS011;29384;42.028;21.388;2023-04-28T07:40:55;1.52;;;1.05;;
42668;SDS011;29384;42.028;21.388;2023-04-28T07:46:22;3.95;;;1.30;;
42668;SDS011;29384;42.028;21.388;2023-04-28T07:48:48;1.40;;;0.90;;
42668;SDS011;29384;42.028;21.388;2023-04-28T07:51:13;2.80;;;1.33;;
42668;SDS011;29384;42.028;21.388;2023-04-28T07:53:38;2.58;;;1.25;;
42668;SDS011;29384;42.028;21.388;2023-04-28T07:56:04;1.48;;;1.20;;
42668;SDS011;29384;42.028;21.388;2023-04-28T07:58:30;0.35;;;0.35;;
42668;SDS011;29384;42.028;21.388;2023-04-28T08:00:55;3.75;;;0.70;;
42668;SDS011;29384;42.028;21.388;2023-04-28T08:03:20;7.20;;;1.52;;
42668;SDS011;29384;42.028;21.388;2023-04-28T08:05:46;1.10;;;0.80;;
42668;SDS011;29384;42.028;21.388;2023-04-28T08:08:11;1.90;;;1.17;;
42668;SDS011;29384;42.028;21.388;2023-04-28T08:10:36;1.50;;;1.23;;
42668;SDS011;29384;42.028;21.388;2023-04-28T08:16:07;0.50;;;0.43;;
42668;SDS011;29384;42.028;21.388;2023-04-28T08:18:32;6.00;;;1.45;;
42668;SDS011;29384;42.028;21.388;2023-04-28T08:20:57;2.67;;;1.42;;
42668;SDS011;29384;42.028;21.388;2023-04-28T08:23:23;1.27;;;1.15;;
42668;SDS011;29384;42.028;21.388;2023-04-28T08:25:52;5.70;;;1.88;;
42668;SDS011;29384;42.028;21.388;2023-04-28T08:31:20;2.55;;;0.98;;
42668;SDS011;29384;42.028;21.388;2023-04-28T08:33:45;6.70;;;1.05;;
42668;SDS011;29384;42.028;21.388;2023-04-28T08:36:12;15.00;;;1.25;;
42668;SDS011;29384;42.028;21.388;2023-04-28T08:38:39;2.03;;;0.85;;
42668;SDS011;29384;42.028;21.388;2023-04-28T08:41:04;1.88;;;0.85;;
42668;SDS011;29384;42.028;21.388;2023-04-28T08:46:32;4.15;;;1.27;;
42668;SDS011;29384;42.028;21.388;2023-04-28T08:48:58;2.92;;;1.20;;
42668;SDS011;29384;42.028;21.388;2023-04-28T08:51:26;1.23;;;1.08;;
42668;SDS011;29384;42.028;21.388;2023-04-28T08:53:57;1.77;;;0.73;;
42668;SDS011;29384;42.028;21.388;2023-04-28T08:56:23;1.52;;;0.82;;
42668;SDS011;29384;42.028;21.388;2023-04-28T09:01:52;1.33;;;1.23;;
42668;SDS011;29384;42.028;21.388;2023-04-28T09:04:17;4.85;;;1.33;;
42668;SDS011;29384;42.028;21.388;2023-04-28T09:06:43;1.05;;;1.05;;
42668;SDS011;29384;42.028;21.388;2023-04-28T09:09:19;3.22;;;1.55;;
42668;SDS011;29384;42.028;21.388;2023-04-28T09:11:55;3.22;;;1.75;;
42668;SDS011;29384;42.028;21.388;2023-04-28T09:14:21;2.95;;;1.13;;
42668;SDS011;29384;42.028;21.388;2023-04-28T09:16:47;0.88;;;0.65;;
42668;SDS011;29384;42.028;21.388;2023-04-28T09:19:12;3.65;;;1.60;;
42668;SDS011;29384;42.028;21.388;2023-04-28T09:21:48;2.78;;;1.02;;
42668;SDS011;29384;42.028;21.388;2023-04-28T09:26:54;2.55;;;0.98;;
42668;SDS011;29384;42.028;21.388;2023-04-28T09:29:19;2.67;;;0.95;;
42668;SDS011;29384;42.028;21.388;2023-04-28T09:31:45;4.00;;;1.05;;
42668;SDS011;29384;42.028;21.388;2023-04-28T09:34:10;2.00;;;1.23;;
42668;SDS011;29384;42.028;21.388;2023-04-28T09:36:36;4.53;;;0.80;;
42668;SDS011;29384;42.028;21.388;2023-04-28T09:39:01;2.58;;;0.88;;
42668;SDS011;29384;42.028;21.388;2023-04-28T09:41:40;0.90;;;0.55;;
42668;SDS011;29384;42.028;21.388;2023-04-28T09:47:20;0.90;;;0.90;;
42668;SDS011;29384;42.028;21.388;2023-04-28T09:49:56;1.83;;;0.93;;
42668;SDS011;29384;42.028;21.388;2023-04-28T09:52:22;4.93;;;0.77;;
42668;SDS011;29384;42.028;21.388;2023-04-28T09:54:51;2.30;;;1.30;;
42668;SDS011;29384;42.028;21.388;2023-04-28T09:57:17;3.25;;;0.88;;
42668;SDS011;29384;42.028;21.388;2023-04-28T09:59:44;1.50;;;0.90;;
42668;SDS011;29384;42.028;21.388;2023-04-28T10:02:11;1.95;;;1.00;;
42668;SDS011;29384;42.028;21.388;2023-04-28T10:04:38;5.55;;;1.30;;
42668;SDS011;29384;42.028;21.388;2023-04-28T10:07:04;3.45;;;1.35;;
42668;SDS011;29384;42.028;21.388;2023-04-28T10:09:29;4.13;;;1.38;;
42668;SDS011;29384;42.028;21.388;2023-04-28T10:11:55;6.68;;;1.27;;
42668;SDS011;29384;42.028;21.388;2023-04-28T10:14:21;4.40;;;0.70;;
42668;SDS011;29384;42.028;21.388;2023-04-28T10:16:47;2.78;;;1.02;;
42668;SDS011;29384;42.028;21.388;2023-04-28T10:19:15;3.05;;;1.42;;
42668;SDS011;29384;42.028;21.388;2023-04-28T10:21:50;1.27;;;0.98;;
42668;SDS011;29384;42.028;21.388;2023-04-28T10:24:21;1.75;;;0.73;;
42668;SDS011;29384;42.028;21.388;2023-04-28T10:35:40;3.30;;;0.82;;
42668;SDS011;29384;42.028;21.388;2023-04-28T10:43:04;7.28;;;1.17;;
42668;SDS011;29384;42.028;21.388;2023-04-28T10:48:14;5.03;;;1.35;;
42668;SDS011;29384;42.028;21.388;2023-04-28T10:56:16;3.92;;;0.82;;
42668;SDS011;29384;42.028;21.388;2023-04-28T10:58:49;0.70;;;0.70;;
42668;SDS011;29384;42.028;21.388;2023-04-28T11:06:26;2.97;;;0.70;;
42668;SDS011;29384;42.028;21.388;2023-04-28T11:08:59;3.40;;;0.40;;
42668;SDS011;29384;42.028;21.388;2023-04-28T11:11:29;3.67;;;0.98;;
42668;SDS011;29384;42.028;21.388;2023-04-28T11:16:50;1.02;;;0.93;;
42668;SDS011;29384;42.028;21.388;2023-04-28T11:19:19;1.55;;;0.57;;
42668;SDS011;29384;42.028;21.388;2023-04-28T11:21:45;1.38;;;1.00;;
42668;SDS011;29384;42.028;21.388;2023-04-28T11:24:11;1.42;;;1.33;;
42668;SDS011;29384;42.028;21.388;2023-04-28T11:26:36;1.83;;;0.90;;
42668;SDS011;29384;42.028;21.388;2023-04-28T11:29:02;2.47;;;1.05;;
42668;SDS011;29384;42.028;21.388;2023-04-28T11:31:27;2.20;;;1.17;;
42668;SDS011;29384;42.028;21.388;2023-04-28T11:33:55;1.08;;;0.80;;
42668;SDS011;29384;42.028;21.388;2023-04-28T11:36:28;1.60;;;1.05;;
42668;SDS011;29384;42.028;21.388;2023-04-28T11:38:54;1.38;;;0.98;;
42668;SDS011;29384;42.028;21.388;2023-04-28T11:41:20;2.45;;;0.90;;
42668;SDS011;29384;42.028;21.388;2023-04-28T11:43:46;2.72;;;1.30;;
42668;SDS011;29384;42.028;21.388;2023-04-28T11:46:15;8.73;;;1.13;;
42668;SDS011;29384;42.028;21.388;2023-04-28T11:48:41;2.95;;;0.57;;
42668;SDS011;29384;42.028;21.388;2023-04-28T11:51:06;1.02;;;0.90;;
42668;SDS011;29384;42.028;21.388;2023-04-28T11:53:44;0.68;;;0.68;;
42668;SDS011;29384;42.028;21.388;2023-04-28T11:56:09;2.33;;;0.77;;
42668;SDS011;29384;42.028;21.388;2023-04-28T11:58:34;1.58;;;1.10;;
42668;SDS011;29384;42.028;21.388;2023-04-28T12:01:07;0.70;;;0.70;;
42668;SDS011;29384;42.028;21.388;2023-04-28T12:03:33;2.75;;;0.90;;
42668;SDS011;29384;42.028;21.388;2023-04-28T12:06:06;1.95;;;1.17;;
42668;SDS011;29384;42.028;21.388;2023-04-28T12:08:31;0.93;;;0.80;;
42668;SDS011;29384;42.028;21.388;2023-04-28T12:11:06;0.40;;;0.40;;
42668;SDS011;29384;42.028;21.388;2023-04-28T12:13:32;4.40;;;0.77;;
42668;SDS011;29384;42.028;21.388;2023-04-28T12:15:57;7.82;;;0.88;;
42668;SDS011;29384;42.028;21.388;2023-04-28T12:18:25;14.60;;;1.27;;
42668;SDS011;29384;42.028;21.388;2023-04-28T12:20:50;0.88;;;0.68;;
42668;SDS011;29384;42.028;21.388;2023-04-28T12:23:27;1.17;;;0.40;;
42668;SDS011;29384;42.028;21.388;2023-04-28T12:25:52;1.95;;;1.00;;
42668;SDS011;29384;42.028;21.388;2023-04-28T12:28:17;1.42;;;1.30;;
42668;SDS011;29384;42.028;21.388;2023-04-28T12:30:43;4.50;;;0.68;;
42668;SDS011;29384;42.028;21.388;2023-04-28T12:33:22;1.10;;;0.60;;
42668;SDS011;29384;42.028;21.388;2023-04-28T12:35:48;1.83;;;0.55;;
42668;SDS011;29384;42.028;21.388;2023-04-28T12:38:14;2.75;;;0.77;;
42668;SDS011;29384;42.028;21.388;2023-04-28T12:40:40;3.05;;;0.40;;
42668;SDS011;29384;42.028;21.388;2023-04-28T12:43:05;0.40;;;0.40;;
42668;SDS011;29384;42.028;21.388;2023-04-28T12:45:30;2.22;;;1.05;;
42668;SDS011;29384;42.028;21.388;2023-04-28T12:47:56;2.63;;;0.60;;
42668;SDS011;29384;42.028;21.388;2023-04-28T12:50:22;0.40;;;0.40;;
42668;SDS011;29384;42.028;21.388;2023-04-28T12:52:48;0.90;;;0.68;;
42668;SDS011;29384;42.028;21.388;2023-04-28T12:55:13;1.80;;;0.55;;
42668;SDS011;29384;42.028;21.388;2023-04-28T12:57:39;0.77;;;0.77;;
42668;SDS011;29384;42.028;21.388;2023-04-28T13:03:07;0.60;;;0.38;;
42668;SDS011;29384;42.028;21.388;2023-04-28T13:05:32;1.65;;;0.60;;
42668;SDS011;29384;42.028;21.388;2023-04-28T13:07:59;2.67;;;0.75;;
42668;SDS011;29384;42.028;21.388;2023-04-28T13:10:24;1.23;;;0.30;;
42668;SDS011;29384;42.028;21.388;2023-04-28T13:12:50;0.68;;;0.68;;
42668;SDS011;29384;42.028;21.388;2023-04-28T13:18:19;1.15;;;0.60;;
42668;SDS011;29384;42.028;21.388;2023-04-28T13:20:44;0.63;;;0.30;;
42668;SDS011;29384;42.028;21.388;2023-04-28T13:23:09;0.73;;;0.30;;
42668;SDS011;29384;42.028;21.388;2023-04-28T13:25:34;0.90;;;0.63;;
42668;SDS011;29384;42.028;21.388;2023-04-28T13:28:00;0.88;;;0.57;;
42668;SDS011;29384;42.028;21.388;2023-04-28T13:30:25;0.95;;;0.50;;
42668;SDS011;29384;42.028;21.388;2023-04-28T13:32:51;1.25;;;0.73;;
42668;SDS011;29384;42.028;21.388;2023-04-28T13:35:16;0.30;;;0.30;;
42668;SDS011;29384;42.028;21.388;2023-04-28T13:37:42;1.00;;;0.63;;
42668;SDS011;29384;42.028;21.388;2023-04-28T13:40:10;0.40;;;0.40;;
42668;SDS011;29384;42.028;21.388;2023-04-28T13:42:36;0.52;;;0.50;;
42668;SDS011;29384;42.028;21.388;2023-04-28T13:48:04;7.68;;;1.00;;
42668;SDS011;29384;42.028;21.388;2023-04-28T13:50:29;1.38;;;0.65;;
42668;SDS011;29384;42.028;21.388;2023-04-28T13:52:55;5.40;;;0.77;;
42668;SDS011;29384;42.028;21.388;2023-04-28T13:55:20;6.50;;;0.65;;
42668;SDS011;29384;42.028;21.388;2023-04-28T13:57:51;1.75;;;0.90;;
42668;SDS011;29384;42.028;21.388;2023-04-28T14:03:19;0.98;;;0.63;;
42668;SDS011;29384;42.028;21.388;2023-04-28T14:05:48;0.30;;;0.30;;
42668;SDS011;29384;42.028;21.388;2023-04-28T14:08:14;0.77;;;0.50;;
42668;SDS011;29384;42.028;21.388;2023-04-28T14:10:39;6.15;;;1.40;;
42668;SDS011;29384;42.028;21.388;2023-04-28T14:13:05;0.65;;;0.65;;
42668;SDS011;29384;42.028;21.388;2023-04-28T14:18:33;2.88;;;0.68;;
42668;SDS011;29384;42.028;21.388;2023-04-28T14:20:58;0.30;;;0.30;;
42668;SDS011;29384;42.028;21.388;2023-04-28T14:23:24;1.48;;;0.45;;
42668;SDS011;29384;42.028;21.388;2023-04-28T14:25:51;6.72;;;1.30;;
42668;SDS011;29384;42.028;21.388;2023-04-28T14:28:19;2.13;;;1.02;;
42668;SDS011;29384;42.028;21.388;2023-04-28T14:30:45;0.80;;;0.65;;
42668;SDS011;29384;42.028;21.388;2023-04-28T14:33:11;6.75;;;0.63;;
42668;SDS011;29384;42.028;21.388;2023-04-28T14:35:36;0.40;;;0.40;;
42668;SDS011;29384;42.028;21.388;2023-04-28T14:38:02;0.45;;;0.45;;
42668;SDS011;29384;42.028;21.388;2023-04-28T14:40:27;1.85;;;0.40;;
42668;SDS011;29384;42.028;21.388;2023-04-28T14:42:53;4.30;;;0.82;;
42668;SDS011;29384;42.028;21.388;2023-04-28T14:48:21;1.73;;;0.77;;
42668;SDS011;29384;42.028;21.388;2023-04-28T14:50:47;3.15;;;0.70;;
42668;SDS011;29384;42.028;21.388;2023-04-28T14:53:13;1.65;;;0.90;;
42668;SDS011;29384;42.028;21.388;2023-04-28T14:55:38;6.03;;;0.85;;
42668;SDS011;29384;42.028;21.388;2023-04-28T14:58:03;1.25;;;1.23;;
42668;SDS011;29384;42.028;21.388;2023-04-28T15:03:31;0.73;;;0.30;;
42668;SDS011;29384;42.028;21.388;2023-04-28T15:05:57;4.25;;;0.70;;
42668;SDS011;29384;42.028;21.388;2023-04-28T15:08:22;1.20;;;0.43;;
42668;SDS011;29384;42.028;21.388;2023-04-28T15:10:47;0.40;;;0.30;;
42668;SDS011;29384;42.028;21.388;2023-04-28T15:13:13;0.73;;;0.52;;
42668;SDS011;29384;42.028;21.388;2023-04-28T15:18:40;6.05;;;0.57;;
42668;SDS011;29384;42.028;21.388;2023-04-28T15:21:06;1.95;;;0.80;;
42668;SDS011;29384;42.028;21.388;2023-04-28T15:23:32;0.57;;;0.57;;
42668;SDS011;29384;42.028;21.388;2023-04-28T15:25:58;0.35;;;0.35;;
42668;SDS011;29384;42.028;21.388;2023-04-28T15:28:23;1.08;;;0.40;;
42668;SDS011;29384;42.028;21.388;2023-04-28T15:33:51;0.50;;;0.50;;
42668;SDS011;29384;42.028;21.388;2023-04-28T15:36:16;0.40;;;0.30;;
42668;SDS011;29384;42.028;21.388;2023-04-28T15:38:44;0.75;;;0.40;;
42668;SDS011;29384;42.028;21.388;2023-04-28T15:41:10;2.25;;;0.47;;
42668;SDS011;29384;42.028;21.388;2023-04-28T15:43:36;0.43;;;0.43;;
42668;SDS011;29384;42.028;21.388;2023-04-28T15:49:03;1.13;;;0.90;;
42668;SDS011;29384;42.028;21.388;2023-04-28T15:51:29;0.70;;;0.70;;
42668;SDS011;29384;42.028;21.388;2023-04-28T15:53:54;3.90;;;0.40;;
42668;SDS011;29384;42.028;21.388;2023-04-28T15:56:21;0.50;;;0.40;;
42668;SDS011;29384;42.028;21.388;2023-04-28T15:58:47;2.95;;;0.98;;
42668;SDS011;29384;42.028;21.388;2023-04-28T16:04:16;0.40;;;0.40;;
42668;SDS011;29384;42.028;21.388;2023-04-28T16:06:41;1.30;;;0.60;;
42668;SDS011;29384;42.028;21.388;2023-04-28T16:09:06;0.40;;;0.40;;
42668;SDS011;29384;42.028;21.388;2023-04-28T16:11:32;1.15;;;0.63;;
42668;SDS011;29384;42.028;21.388;2023-04-28T16:13:57;0.70;;;0.38;;
42668;SDS011;29384;42.028;21.388;2023-04-28T16:16:22;0.43;;;0.38;;
42668;SDS011;29384;42.028;21.388;2023-04-28T16:18:49;1.70;;;0.65;;
42668;SDS011;29384;42.028;21.388;2023-04-28T16:21:14;1.00;;;0.90;;
42668;SDS011;29384;42.028;21.388;2023-04-28T16:23:41;2.78;;;0.93;;
42668;SDS011;29384;42.028;21.388;2023-04-28T16:26:06;0.90;;;0.63;;
42668;SDS011;29384;42.028;21.388;2023-04-28T16:28:31;3.20;;;0.80;;
42668;SDS011;29384;42.028;21.388;2023-04-28T16:34:00;9.00;;;0.60;;
42668;SDS011;29384;42.028;21.388;2023-04-28T16:36:27;1.45;;;0.95;;
42668;SDS011;29384;42.028;21.388;2023-04-28T16:38:53;0.80;;;0.45;;
42668;SDS011;29384;42.028;21.388;2023-04-28T16:41:19;2.95;;;0.50;;
42668;SDS011;29384;42.028;21.388;2023-04-28T16:43:44;5.88;;;1.00;;
42668;SDS011;29384;42.028;21.388;2023-04-28T16:49:12;1.30;;;1.20;;
42668;SDS011;29384;42.028;21.388;2023-04-28T16:51:37;0.80;;;0.80;;
42668;SDS011;29384;42.028;21.388;2023-04-28T16:54:03;1.15;;;0.98;;
42668;SDS011;29384;42.028;21.388;2023-04-28T16:56:28;1.02;;;0.60;;
42668;SDS011;29384;42.028;21.388;2023-04-28T16:58:53;1.50;;;0.70;;
42668;SDS011;29384;42.028;21.388;2023-04-28T17:04:22;1.42;;;0.57;;
42668;SDS011;29384;42.028;21.388;2023-04-28T17:06:48;1.15;;;0.60;;
42668;SDS011;29384;42.028;21.388;2023-04-28T17:09:13;6.57;;;1.63;;
42668;SDS011;29384;42.028;21.388;2023-04-28T17:11:39;3.03;;;0.90;;
42668;SDS011;29384;42.028;21.388;2023-04-28T17:14:04;0.80;;;0.80;;
42668;SDS011;29384;42.028;21.388;2023-04-28T17:19:32;1.02;;;1.02;;
42668;SDS011;29384;42.028;21.388;2023-04-28T17:21:57;5.60;;;1.27;;